Time;durP1;ratioP1;P1;durP2;ratioP2;P2;SDS_P1;SDS_P2;PMS_P1;PMS_P2;Temp;Humidity;BMP_temperature;BMP_pressure;BME280_temperature;BME280_humidity;BME280_pressure;Samples;Min_cycle;Max_cycle;Signal;HPM_P1;HPM_P2
2023/10/26 00:01:26;;;;;;;1.15;0.70;;;11.80;99.90;;;;;;5001082;28;20105;-65
2023/10/26 00:03:51;;;;;;;2.67;1.00;;;11.70;99.90;;;;;;4997969;28;20030;-65
2023/10/26 00:06:17;;;;;;;2.63;1.00;;;11.70;99.90;;;;;;4997824;28;20022;-65
2023/10/26 00:08:42;;;;;;;1.55;0.90;;;11.70;99.90;;;;;;4998032;28;20026;-65
2023/10/26 00:11:08;;;;;;;1.10;0.70;;;11.70;99.90;;;;;;4997689;28;20026;-65
2023/10/26 00:13:33;;;;;;;1.00;0.68;;;11.70;99.90;;;;;;4998062;28;20025;-65
2023/10/26 00:15:59;;;;;;;2.15;0.80;;;11.70;99.90;;;;;;4997819;28;20109;-65
2023/10/26 00:18:24;;;;;;;1.25;0.80;;;11.60;99.90;;;;;;4997739;28;20173;-65
2023/10/26 00:20:59;;;;;;;1.27;0.80;;;11.60;99.90;;;;;;4998110;28;20034;-65
2023/10/26 00:23:25;;;;;;;1.23;0.82;;;11.60;99.90;;;;;;4997290;28;20030;-65
2023/10/26 00:25:50;;;;;;;3.15;0.90;;;11.60;99.90;;;;;;4997488;28;20097;-65
2023/10/26 00:28:16;;;;;;;1.20;0.85;;;11.50;99.90;;;;;;4997668;28;20026;-65
2023/10/26 00:30:41;;;;;;;2.53;1.05;;;11.60;99.90;;;;;;4997513;28;20031;-65
2023/10/26 00:33:07;;;;;;;1.25;0.88;;;11.60;99.90;;;;;;4997114;28;20065;-65
2023/10/26 00:35:32;;;;;;;3.30;1.27;;;11.60;99.90;;;;;;4996791;28;20054;-65
2023/10/26 00:37:58;;;;;;;1.58;0.93;;;11.60;99.90;;;;;;4997813;28;20113;-65
2023/10/26 00:40:23;;;;;;;1.27;0.70;;;11.60;99.90;;;;;;4997921;28;20076;-65
2023/10/26 00:42:49;;;;;;;1.83;1.00;;;11.50;99.90;;;;;;4998162;28;20094;-65
2023/10/26 00:45:15;;;;;;;2.45;0.90;;;11.50;99.90;;;;;;4997820;28;20053;-65
2023/10/26 00:47:41;;;;;;;1.60;1.23;;;11.50;99.90;;;;;;4996693;28;20050;-65
2023/10/26 00:50:07;;;;;;;1.33;0.80;;;11.50;99.90;;;;;;4996574;28;20088;-65
2023/10/26 00:52:35;;;;;;;3.45;1.23;;;11.40;99.90;;;;;;4996872;28;20069;-65
2023/10/26 00:55:03;;;;;;;1.65;1.02;;;11.40;99.90;;;;;;4997599;28;20026;-65
2023/10/26 00:57:30;;;;;;;2.33;1.40;;;11.40;99.90;;;;;;4997029;28;20026;-65
2023/10/26 00:59:58;;;;;;;1.88;1.40;;;11.40;99.90;;;;;;4997127;28;20157;-66
2023/10/26 01:02:25;;;;;;;2.38;1.20;;;11.50;99.90;;;;;;4997063;28;20022;-65
2023/10/26 01:04:50;;;;;;;1.80;1.15;;;11.50;99.90;;;;;;4997094;28;20027;-65
2023/10/26 01:07:16;;;;;;;3.88;1.65;;;11.40;99.90;;;;;;4996573;28;20026;-65
2023/10/26 01:09:42;;;;;;;5.22;1.52;;;11.40;99.90;;;;;;4997391;28;20034;-65
2023/10/26 01:12:08;;;;;;;3.20;1.98;;;11.40;99.90;;;;;;4996769;28;20030;-65
2023/10/26 01:14:34;;;;;;;3.35;1.55;;;11.40;99.90;;;;;;4997450;28;20033;-65
2023/10/26 01:17:00;;;;;;;2.90;1.67;;;11.40;99.90;;;;;;4996894;28;20114;-65
2023/10/26 01:19:43;;;;;;;2.70;1.98;;;11.40;99.90;;;;;;4996714;28;20026;-65
2023/10/26 01:22:09;;;;;;;2.70;1.83;;;11.40;99.90;;;;;;4997403;28;20022;-65
2023/10/26 01:24:36;;;;;;;4.05;2.05;;;11.40;99.90;;;;;;4996860;28;20026;-65
2023/10/26 01:27:01;;;;;;;2.75;1.90;;;11.40;99.90;;;;;;4996442;28;20022;-65
2023/10/26 01:29:27;;;;;;;4.63;2.85;;;11.50;99.90;;;;;;4996646;28;20030;-65
2023/10/26 01:31:52;;;;;;;3.53;2.05;;;11.50;99.90;;;;;;4996672;28;20117;-65
2023/10/26 01:34:18;;;;;;;3.38;1.80;;;11.40;99.90;;;;;;4996746;28;20076;-65
2023/10/26 01:36:43;;;;;;;3.30;2.00;;;11.30;99.90;;;;;;4997199;28;20031;-65
2023/10/26 01:39:09;;;;;;;2.63;1.65;;;11.30;99.90;;;;;;4996789;28;20045;-65
2023/10/26 01:41:35;;;;;;;3.63;1.73;;;11.20;99.90;;;;;;4996545;28;20018;-65
2023/10/26 01:44:01;;;;;;;3.88;2.00;;;11.20;99.90;;;;;;4996340;28;20054;-65
2023/10/26 01:46:26;;;;;;;4.53;2.03;;;11.20;99.90;;;;;;4996635;28;20022;-65
2023/10/26 01:48:52;;;;;;;2.75;1.85;;;11.20;99.90;;;;;;4997561;28;20030;-65
2023/10/26 01:51:17;;;;;;;2.22;1.45;;;11.30;99.90;;;;;;4996569;28;20038;-65
2023/10/26 01:53:43;;;;;;;2.67;1.75;;;11.30;99.90;;;;;;4997372;28;20034;-65
2023/10/26 01:56:09;;;;;;;3.60;2.10;;;11.30;99.90;;;;;;4996353;28;20069;-65
2023/10/26 01:58:34;;;;;;;4.03;2.30;;;11.30;99.90;;;;;;4997098;28;20030;-65
2023/10/26 02:01:00;;;;;;;2.75;1.70;;;11.20;99.90;;;;;;5010956;28;20053;-65
2023/10/26 02:03:26;;;;;;;4.43;2.30;;;11.20;99.90;;;;;;5020427;28;20022;-65
2023/10/26 02:05:52;;;;;;;3.35;2.22;;;11.20;99.90;;;;;;5020528;28;20022;-65
2023/10/26 02:08:17;;;;;;;4.07;2.15;;;11.30;99.90;;;;;;5019609;28;20137;-65
2023/10/26 02:10:43;;;;;;;4.45;1.92;;;11.30;99.90;;;;;;5020251;28;20033;-65
2023/10/26 02:13:09;;;;;;;2.08;1.58;;;11.30;99.90;;;;;;5020495;28;20026;-65
2023/10/26 02:15:35;;;;;;;3.60;2.15;;;11.30;99.90;;;;;;5019548;28;20022;-65
2023/10/26 02:18:01;;;;;;;4.28;1.83;;;11.20;99.90;;;;;;5019534;28;20026;-65
2023/10/26 02:20:26;;;;;;;2.50;1.60;;;11.20;99.90;;;;;;5019334;28;20018;-65
2023/10/26 02:22:52;;;;;;;4.07;1.92;;;11.20;99.90;;;;;;5019415;28;20022;-65
2023/10/26 02:25:17;;;;;;;3.95;1.90;;;11.20;99.90;;;;;;5019474;28;20022;-65
2023/10/26 02:27:43;;;;;;;4.68;2.33;;;11.20;99.90;;;;;;5019398;28;20116;-65
2023/10/26 02:30:09;;;;;;;2.95;1.85;;;11.30;99.90;;;;;;5019595;28;20034;-65
2023/10/26 02:32:34;;;;;;;3.38;2.22;;;11.30;99.90;;;;;;5019046;28;20026;-65
2023/10/26 02:35:00;;;;;;;4.35;2.47;;;11.30;99.90;;;;;;5018974;28;20040;-65
2023/10/26 02:37:25;;;;;;;3.80;1.92;;;11.30;99.90;;;;;;5018769;28;20101;-65
2023/10/26 02:39:51;;;;;;;4.43;1.75;;;11.20;99.90;;;;;;5019727;28;20072;-65
2023/10/26 02:42:17;;;;;;;3.65;2.08;;;11.30;99.90;;;;;;5018775;28;20026;-65
2023/10/26 02:44:44;;;;;;;2.88;2.22;;;11.30;99.90;;;;;;5019532;28;20065;-65
2023/10/26 02:47:09;;;;;;;4.00;2.65;;;11.20;99.90;;;;;;5019031;28;20072;-65
2023/10/26 02:49:35;;;;;;;7.38;3.03;;;11.20;99.90;;;;;;5019005;28;20030;-65
2023/10/26 02:52:00;;;;;;;3.53;1.98;;;11.30;99.90;;;;;;5018619;28;20053;-65
2023/10/26 02:54:27;;;;;;;4.45;2.30;;;11.20;99.90;;;;;;5018438;28;20037;-65
2023/10/26 02:56:53;;;;;;;4.65;2.50;;;11.20;99.90;;;;;;5018758;28;20028;-65
2023/10/26 02:59:18;;;;;;;3.78;2.50;;;11.20;99.90;;;;;;5019357;28;20026;-65
2023/10/26 03:01:44;;;;;;;4.55;2.25;;;11.20;99.90;;;;;;5019177;28;20113;-65
2023/10/26 03:04:09;;;;;;;4.20;2.72;;;11.10;99.90;;;;;;5018549;28;20026;-65
2023/10/26 03:06:39;;;;;;;4.50;2.63;;;11.20;99.90;;;;;;5018875;28;20032;-65
2023/10/26 03:09:05;;;;;;;4.10;2.75;;;11.20;99.90;;;;;;5018333;28;20030;-65
2023/10/26 03:11:31;;;;;;;5.72;2.80;;;11.10;99.90;;;;;;5017823;28;20042;-65
2023/10/26 03:13:57;;;;;;;4.28;2.75;;;11.10;99.90;;;;;;5018409;28;20036;-65
2023/10/26 03:16:22;;;;;;;7.03;2.30;;;11.10;99.90;;;;;;5018387;28;20124;-65
2023/10/26 03:18:48;;;;;;;5.80;3.20;;;11.10;99.90;;;;;;5018973;28;20022;-65
2023/10/26 03:21:16;;;;;;;5.65;2.42;;;11.10;99.90;;;;;;5018285;28;20053;-65
2023/10/26 03:23:41;;;;;;;8.38;3.33;;;11.10;99.90;;;;;;5018291;28;20064;-65
2023/10/26 03:26:11;;;;;;;5.78;3.55;;;11.10;99.90;;;;;;5018732;28;20022;-65
2023/10/26 03:28:36;;;;;;;4.72;2.88;;;11.10;99.90;;;;;;5018373;28;20026;-65
2023/10/26 03:31:02;;;;;;;4.22;2.70;;;11.20;99.90;;;;;;5018131;28;20029;-65
2023/10/26 03:33:27;;;;;;;5.82;3.45;;;11.20;99.90;;;;;;5017831;28;20022;-65
2023/10/26 03:35:53;;;;;;;9.48;3.90;;;11.30;99.90;;;;;;5018331;28;20034;-69
2023/10/26 03:38:19;;;;;;;5.65;3.30;;;11.20;99.90;;;;;;5018611;28;20029;-69
2023/10/26 03:40:44;;;;;;;6.40;3.60;;;11.20;99.90;;;;;;5018881;28;20033;-69
2023/10/26 03:43:10;;;;;;;8.43;3.25;;;11.20;99.90;;;;;;5018406;28;20026;-69
2023/10/26 03:45:35;;;;;;;5.30;3.08;;;11.30;99.90;;;;;;5017907;28;20068;-69
2023/10/26 03:48:01;;;;;;;6.38;2.70;;;11.30;99.90;;;;;;5017877;28;20054;-69
2023/10/26 03:50:26;;;;;;;5.45;3.30;;;11.20;99.90;;;;;;5018040;28;20018;-69
2023/10/26 03:52:52;;;;;;;7.88;3.58;;;11.30;99.90;;;;;;5017503;28;20038;-69
2023/10/26 03:55:17;;;;;;;7.50;3.47;;;11.30;99.90;;;;;;5017373;28;20030;-70
2023/10/26 03:57:44;;;;;;;7.70;4.00;;;11.40;99.90;;;;;;5017573;28;20033;-70
2023/10/26 04:00:10;;;;;;;15.48;3.70;;;11.30;99.90;;;;;;5014481;28;20019;-70
2023/10/26 04:02:36;;;;;;;6.57;4.18;;;11.30;99.90;;;;;;5016549;28;20048;-70
2023/10/26 04:05:04;;;;;;;7.97;3.63;;;11.30;99.90;;;;;;5017551;28;20030;-70
2023/10/26 04:07:29;;;;;;;7.40;4.15;;;11.30;99.90;;;;;;5017272;28;20099;-70
2023/10/26 04:09:55;;;;;;;7.30;4.13;;;11.40;99.90;;;;;;5017207;28;20026;-70
2023/10/26 04:12:21;;;;;;;8.57;3.95;;;11.40;99.90;;;;;;5017546;28;20121;-70
2023/10/26 04:14:46;;;;;;;8.23;4.78;;;11.40;99.90;;;;;;5017034;28;20033;-70
2023/10/26 04:17:12;;;;;;;8.65;4.25;;;11.40;99.90;;;;;;5017425;28;20116;-70
2023/10/26 04:19:38;;;;;;;8.55;4.47;;;11.50;99.90;;;;;;5017333;28;20040;-70
2023/10/26 04:22:05;;;;;;;10.50;4.53;;;11.50;99.90;;;;;;5017139;28;20033;-70
2023/10/26 04:24:31;;;;;;;7.90;4.10;;;11.50;99.90;;;;;;5017093;28;20029;-70
2023/10/26 04:26:57;;;;;;;9.80;4.82;;;11.50;99.90;;;;;;5017342;28;20030;-70
2023/10/26 04:29:22;;;;;;;7.95;4.55;;;11.50;99.90;;;;;;5017741;28;20040;-70
2023/10/26 04:31:48;;;;;;;8.32;4.30;;;11.50;99.90;;;;;;5017172;28;20093;-70
2023/10/26 04:34:13;;;;;;;7.63;4.72;;;11.50;99.90;;;;;;5016635;28;20022;-70
2023/10/26 04:36:39;;;;;;;9.63;5.13;;;11.50;99.90;;;;;;5017189;28;20034;-70
2023/10/26 04:39:04;;;;;;;8.23;5.00;;;11.50;99.90;;;;;;5016968;28;20029;-70
2023/10/26 04:41:30;;;;;;;10.55;5.78;;;11.40;99.90;;;;;;5017528;28;20041;-70
2023/10/26 04:43:56;;;;;;;10.80;5.18;;;11.40;99.90;;;;;;5017259;28;20079;-70
2023/10/26 04:46:22;;;;;;;10.30;4.97;;;11.50;99.90;;;;;;5016783;28;20022;-70
2023/10/26 04:48:47;;;;;;;7.82;3.97;;;11.50;99.90;;;;;;5017779;28;20080;-70
2023/10/26 04:51:13;;;;;;;7.93;4.93;;;11.50;99.90;;;;;;5017614;28;20037;-70
2023/10/26 04:53:38;;;;;;;7.30;4.57;;;11.50;99.90;;;;;;5017498;28;20084;-70
2023/10/26 04:56:04;;;;;;;7.60;4.50;;;11.50;99.90;;;;;;5017490;28;20033;-70
2023/10/26 04:58:30;;;;;;;6.78;4.35;;;11.50;99.90;;;;;;5016633;28;20022;-70
2023/10/26 05:00:56;;;;;;;15.32;4.75;;;11.50;99.90;;;;;;5017086;28;20025;-70
2023/10/26 05:03:21;;;;;;;9.45;4.97;;;11.50;99.90;;;;;;5017218;28;20014;-70
2023/10/26 05:05:47;;;;;;;9.00;5.30;;;11.50;99.90;;;;;;5017000;28;20032;-70
2023/10/26 05:08:12;;;;;;;9.68;5.07;;;11.40;99.90;;;;;;5016909;28;20112;-70
2023/10/26 05:10:38;;;;;;;13.15;5.13;;;11.40;99.90;;;;;;5016713;28;20134;-70
2023/10/26 05:13:03;;;;;;;9.52;5.20;;;11.40;99.90;;;;;;5016490;28;20092;-70
2023/10/26 05:15:29;;;;;;;7.53;4.70;;;11.40;99.90;;;;;;5016213;28;20029;-70
2023/10/26 05:17:54;;;;;;;11.48;6.00;;;11.40;99.90;;;;;;5017328;28;20022;-70
2023/10/26 05:20:21;;;;;;;12.38;5.85;;;11.40;99.90;;;;;;5016658;28;20029;-70
2023/10/26 05:22:46;;;;;;;14.43;7.72;;;11.40;99.90;;;;;;5017047;28;20049;-70
2023/10/26 05:25:13;;;;;;;14.23;6.90;;;11.40;99.90;;;;;;5017113;28;20026;-70
2023/10/26 05:27:39;;;;;;;13.85;7.13;;;11.40;99.90;;;;;;5016396;28;20033;-70
2023/10/26 05:30:06;;;;;;;17.88;8.68;;;11.50;99.90;;;;;;5016050;28;20030;-70
2023/10/26 05:32:31;;;;;;;12.02;6.40;;;11.60;99.90;;;;;;5016160;28;20113;-70
2023/10/26 05:34:57;;;;;;;13.23;6.53;;;11.60;99.90;;;;;;5017781;28;20060;-70
2023/10/26 05:37:23;;;;;;;12.75;6.72;;;11.50;99.90;;;;;;5020415;28;20030;-70
2023/10/26 05:39:48;;;;;;;9.93;6.57;;;11.50;99.90;;;;;;5020705;28;20029;-70
2023/10/26 05:42:14;;;;;;;9.43;5.20;;;11.50;99.90;;;;;;5020124;28;20018;-70
2023/10/26 05:44:39;;;;;;;13.10;6.68;;;11.50;99.90;;;;;;5020452;28;20075;-70
2023/10/26 05:47:05;;;;;;;12.65;6.45;;;11.50;99.90;;;;;;5020125;28;20029;-70
2023/10/26 05:49:30;;;;;;;13.90;6.72;;;11.50;99.90;;;;;;5020681;28;20029;-70
2023/10/26 05:52:01;;;;;;;10.75;6.50;;;11.50;99.90;;;;;;5020035;28;20045;-70
2023/10/26 05:54:27;;;;;;;9.38;5.63;;;11.50;99.90;;;;;;5019701;28;20025;-70
2023/10/26 05:56:52;;;;;;;12.32;6.40;;;11.50;99.90;;;;;;5020102;28;20029;-70
2023/10/26 05:59:18;;;;;;;13.65;6.22;;;11.60;99.90;;;;;;5019964;28;20030;-70
2023/10/26 06:01:43;;;;;;;8.82;4.80;;;11.70;99.90;;;;;;5009036;28;20076;-70
2023/10/26 06:04:09;;;;;;;10.63;6.07;;;11.70;99.90;;;;;;5000271;28;20117;-70
2023/10/26 06:06:34;;;;;;;10.02;5.93;;;11.70;99.90;;;;;;5000142;28;20120;-70
2023/10/26 06:09:00;;;;;;;13.52;6.18;;;11.70;99.90;;;;;;5000221;28;20061;-70
2023/10/26 06:11:26;;;;;;;14.48;6.38;;;11.60;99.90;;;;;;5000537;28;20030;-70
2023/10/26 06:13:51;;;;;;;12.48;5.72;;;11.60;99.90;;;;;;5000317;28;20073;-70
2023/10/26 06:16:18;;;;;;;11.32;5.90;;;11.70;99.90;;;;;;4999902;28;20026;-70
2023/10/26 06:18:43;;;;;;;8.68;5.10;;;11.70;99.90;;;;;;5000447;28;20073;-70
2023/10/26 06:21:09;;;;;;;9.60;5.88;;;11.80;99.90;;;;;;4999730;28;20033;-70
2023/10/26 06:23:35;;;;;;;11.38;5.32;;;11.80;99.90;;;;;;5000442;28;20094;-70
2023/10/26 06:26:02;;;;;;;9.25;5.13;;;11.70;99.90;;;;;;5000244;28;20030;-70
2023/10/26 06:28:28;;;;;;;11.90;5.53;;;11.70;99.90;;;;;;4999599;28;20026;-70
2023/10/26 06:30:54;;;;;;;10.45;5.22;;;11.70;99.90;;;;;;4999628;28;20172;-70
2023/10/26 06:33:20;;;;;;;11.23;5.82;;;11.70;99.90;;;;;;4999778;28;20029;-70
2023/10/26 06:35:49;;;;;;;10.40;5.82;;;11.70;99.90;;;;;;4999747;28;20031;-70
2023/10/26 06:38:15;;;;;;;11.02;6.13;;;11.60;99.90;;;;;;4999219;28;20026;-70
2023/10/26 06:40:40;;;;;;;10.00;5.97;;;11.70;99.90;;;;;;4999674;28;20032;-70
2023/10/26 06:43:06;;;;;;;10.20;5.78;;;11.70;99.90;;;;;;4999967;28;20053;-70
2023/10/26 06:45:33;;;;;;;9.52;5.68;;;11.70;99.90;;;;;;4999598;28;20113;-70
2023/10/26 06:47:58;;;;;;;12.45;6.43;;;11.60;99.90;;;;;;4998523;28;20076;-70
2023/10/26 06:50:24;;;;;;;13.90;6.20;;;11.60;99.90;;;;;;4999592;28;20026;-70
2023/10/26 06:52:49;;;;;;;11.15;5.85;;;11.60;99.90;;;;;;4999666;28;20023;-70
2023/10/26 06:55:16;;;;;;;11.82;6.10;;;11.50;99.90;;;;;;4998974;28;20033;-70
2023/10/26 06:57:42;;;;;;;10.63;5.97;;;11.50;99.90;;;;;;4999339;28;20022;-70
2023/10/26 07:00:08;;;;;;;10.07;5.38;;;11.50;99.90;;;;;;4999321;28;20093;-70
2023/10/26 07:02:34;;;;;;;13.30;6.22;;;11.50;99.90;;;;;;4999707;28;20026;-70
2023/10/26 07:05:00;;;;;;;12.50;6.38;;;11.60;99.90;;;;;;4999299;28;20029;-70
2023/10/26 07:07:27;;;;;;;10.52;6.43;;;11.60;99.90;;;;;;4998680;28;20185;-70
2023/10/26 07:09:52;;;;;;;14.50;7.47;;;11.60;99.90;;;;;;4999087;28;20026;-70
2023/10/26 07:12:18;;;;;;;11.75;7.28;;;11.60;99.90;;;;;;4999278;28;20037;-70
2023/10/26 07:14:44;;;;;;;16.23;7.65;;;11.60;99.90;;;;;;4998635;28;20023;-70
2023/10/26 07:17:09;;;;;;;16.33;7.30;;;11.60;99.90;;;;;;4999590;28;20028;-70
2023/10/26 07:19:35;;;;;;;14.63;8.32;;;11.60;99.90;;;;;;4999450;28;20030;-71
2023/10/26 07:22:00;;;;;;;12.48;6.80;;;11.50;99.90;;;;;;4998884;28;20026;-70
2023/10/26 07:24:26;;;;;;;16.85;7.45;;;11.50;99.90;;;;;;4998336;28;20026;-70
2023/10/26 07:26:51;;;;;;;13.55;7.22;;;11.40;99.90;;;;;;4998323;28;20022;-70
2023/10/26 07:29:17;;;;;;;14.25;7.53;;;11.40;99.90;;;;;;4998514;28;20031;-70
2023/10/26 07:31:44;;;;;;;14.13;7.38;;;11.40;99.90;;;;;;4998468;28;20030;-70
2023/10/26 07:34:09;;;;;;;14.35;7.30;;;11.40;99.90;;;;;;4998139;28;20026;-70
2023/10/26 07:36:35;;;;;;;17.50;8.05;;;11.40;99.90;;;;;;4998340;28;20072;-70
2023/10/26 07:39:01;;;;;;;13.60;7.22;;;11.40;99.90;;;;;;4999164;28;20030;-70
2023/10/26 07:41:27;;;;;;;15.52;7.85;;;11.40;99.90;;;;;;4998443;28;20026;-70
2023/10/26 07:43:52;;;;;;;15.90;8.38;;;11.40;99.90;;;;;;4999208;28;20109;-70
2023/10/26 07:46:19;;;;;;;14.77;7.10;;;11.50;99.90;;;;;;4997917;28;20058;-70
2023/10/26 07:48:45;;;;;;;16.90;7.90;;;11.50;99.90;;;;;;4998141;28;20033;-70
2023/10/26 07:51:11;;;;;;;12.43;6.65;;;11.50;99.90;;;;;;4998501;28;20113;-70
2023/10/26 07:53:36;;;;;;;13.60;7.38;;;11.50;99.90;;;;;;4998592;28;20023;-71
2023/10/26 07:56:02;;;;;;;14.18;7.97;;;11.40;99.90;;;;;;4998050;28;20113;-70
2023/10/26 07:58:29;;;;;;;15.13;8.02;;;11.40;99.90;;;;;;4998327;28;20090;-70
2023/10/26 08:00:55;;;;;;;16.33;7.55;;;11.40;99.90;;;;;;4999155;28;20022;-70
2023/10/26 08:03:24;;;;;;;13.43;7.50;;;11.40;99.90;;;;;;5015895;28;20022;-70
2023/10/26 08:06:00;;;;;;;14.38;7.47;;;11.40;99.90;;;;;;5017847;28;20033;-70
2023/10/26 08:08:26;;;;;;;15.95;8.20;;;11.40;99.90;;;;;;5018164;28;20029;-70
2023/10/26 08:10:52;;;;;;;16.10;7.75;;;11.40;99.90;;;;;;5017631;28;20026;-70
2023/10/26 08:13:17;;;;;;;14.25;7.65;;;11.40;99.90;;;;;;5017371;28;20147;-70
2023/10/26 08:15:44;;;;;;;17.83;7.03;;;11.40;99.90;;;;;;5017753;28;20022;-70
2023/10/26 08:18:11;;;;;;;15.43;7.80;;;11.40;99.90;;;;;;5017263;28;20022;-70
2023/10/26 08:20:38;;;;;;;14.52;8.27;;;11.40;99.90;;;;;;5017753;28;20022;-70
2023/10/26 08:23:03;;;;;;;16.45;8.50;;;11.50;99.90;;;;;;5017023;28;20032;-70
2023/10/26 08:25:29;;;;;;;13.05;7.22;;;11.50;99.90;;;;;;5016894;28;20022;-70
2023/10/26 08:27:54;;;;;;;13.88;7.53;;;11.70;99.90;;;;;;5017629;28;20086;-70
2023/10/26 08:30:20;;;;;;;15.20;7.05;;;11.90;99.90;;;;;;5016949;28;20022;-70
2023/10/26 08:32:49;;;;;;;13.18;6.55;;;12.00;99.90;;;;;;5017298;28;20052;-70
2023/10/26 08:35:15;;;;;;;10.30;6.35;;;12.00;99.90;;;;;;5000753;28;20140;-70
2023/10/26 08:37:41;;;;;;;12.05;6.05;;;12.10;99.90;;;;;;5017028;28;20057;-70
2023/10/26 08:40:13;;;;;;;11.60;6.40;;;12.00;99.90;;;;;;5017347;28;20113;-70
2023/10/26 08:42:40;;;;;;;10.27;6.93;;;12.10;99.90;;;;;;5016923;28;20045;-70
2023/10/26 08:45:12;;;;;;;20.17;8.05;;;12.00;99.90;;;;;;5017135;28;20026;-70
2023/10/26 08:47:39;;;;;;;10.65;6.60;;;12.00;99.90;;;;;;5017221;28;20096;-69
2023/10/26 08:50:06;;;;;;;11.32;6.28;;;11.90;99.90;;;;;;5016900;28;20121;-69
2023/10/26 08:52:31;;;;;;;10.65;6.57;;;12.10;99.90;;;;;;5016916;28;20084;-70
2023/10/26 08:54:57;;;;;;;8.40;5.55;;;12.20;99.90;;;;;;5016890;28;20026;-70
2023/10/26 08:57:22;;;;;;;10.90;6.10;;;12.20;99.90;;;;;;5016504;28;20037;-69
2023/10/26 08:59:48;;;;;;;10.07;5.60;;;12.20;99.90;;;;;;5017128;28;20033;-69
2023/10/26 09:02:13;;;;;;;9.25;6.13;;;12.30;99.90;;;;;;5016522;28;20018;-69
2023/10/26 09:04:59;;;;;;;8.73;6.05;;;12.20;99.90;;;;;;5016670;28;20026;-69
2023/10/26 09:07:26;;;;;;;11.60;5.18;;;12.20;99.90;;;;;;5017177;28;20026;-69
2023/10/26 09:09:52;;;;;;;8.20;5.07;;;12.30;99.90;;;;;;5015817;28;20079;-69
2023/10/26 09:12:17;;;;;;;9.70;5.05;;;12.30;99.90;;;;;;5016930;28;20022;-69
2023/10/26 09:14:58;;;;;;;8.80;5.07;;;12.30;99.90;;;;;;5016528;28;20029;-69
2023/10/26 09:17:29;;;;;;;8.82;5.13;;;12.30;99.90;;;;;;5016210;28;20030;-68
2023/10/26 09:19:55;;;;;;;8.67;4.87;;;12.20;99.90;;;;;;5016555;28;20022;-69
2023/10/26 09:22:37;;;;;;;9.98;5.75;;;12.20;99.90;;;;;;5016479;28;20296;-69
2023/10/26 09:25:11;;;;;;;8.43;5.72;;;12.10;99.90;;;;;;5016413;28;20026;-69
2023/10/26 09:27:38;;;;;;;9.98;5.22;;;12.20;99.90;;;;;;5016387;28;20030;-69
2023/10/26 09:30:05;;;;;;;12.25;5.22;;;12.20;99.90;;;;;;5016274;28;20088;-70
2023/10/26 09:32:35;;;;;;;9.40;5.13;;;12.20;99.90;;;;;;5016381;28;20100;-70
2023/10/26 09:35:02;;;;;;;10.65;5.85;;;12.20;99.90;;;;;;5016908;28;20052;-69
2023/10/26 09:37:28;;;;;;;10.13;5.07;;;12.20;99.90;;;;;;5016119;28;20037;-72
2023/10/26 09:39:55;;;;;;;6.43;4.68;;;12.10;99.90;;;;;;5016450;28;20057;-71
2023/10/26 09:42:21;;;;;;;9.10;5.25;;;12.10;99.90;;;;;;5016877;28;20018;-72
2023/10/26 09:44:47;;;;;;;6.50;4.60;;;12.20;99.90;;;;;;5016374;28;20032;-72
2023/10/26 09:47:13;;;;;;;6.53;3.83;;;12.20;99.90;;;;;;5015886;28;20026;-71
2023/10/26 09:50:14;;;;;;;7.25;4.15;;;12.20;99.90;;;;;;5016021;28;20026;-72
2023/10/26 09:52:44;;;;;;;6.47;4.43;;;12.20;99.90;;;;;;5016536;28;20112;-71
2023/10/26 09:55:11;;;;;;;6.65;4.28;;;12.20;99.90;;;;;;5016243;28;20034;-71
2023/10/26 09:57:48;;;;;;;6.07;4.43;;;12.20;99.90;;;;;;5016116;28;20085;-72
2023/10/26 10:00:14;;;;;;;9.90;4.70;;;12.20;99.90;;;;;;5016012;28;20033;-72
2023/10/26 10:02:40;;;;;;;7.25;4.28;;;12.30;99.90;;;;;;5003845;28;20023;-72
2023/10/26 10:05:06;;;;;;;9.85;5.10;;;12.20;99.90;;;;;;4996180;28;20121;-72
2023/10/26 10:07:45;;;;;;;7.22;4.70;;;12.30;99.90;;;;;;4997018;28;20057;-72
2023/10/26 10:10:13;;;;;;;10.07;4.68;;;12.30;99.90;;;;;;4995776;28;20121;-71
2023/10/26 10:12:40;;;;;;;8.07;4.03;;;12.30;99.90;;;;;;4996702;28;20037;-72
2023/10/26 10:15:07;;;;;;;5.75;4.07;;;12.30;99.90;;;;;;4996333;28;20026;-71
2023/10/26 10:17:44;;;;;;;8.30;3.40;;;12.40;99.90;;;;;;4996090;28;20026;-71
2023/10/26 10:20:19;;;;;;;5.15;3.95;;;12.50;99.90;;;;;;4997126;28;20034;-72
2023/10/26 10:22:48;;;;;;;5.05;3.75;;;12.50;99.90;;;;;;5000637;28;20041;-72
2023/10/26 10:25:17;;;;;;;5.80;4.05;;;12.50;99.90;;;;;;4999616;28;20030;-71
2023/10/26 10:27:49;;;;;;;4.72;3.70;;;12.50;99.90;;;;;;4999789;28;20031;-72
2023/10/26 10:30:16;;;;;;;;;;;12.60;99.90;;;;;;4999813;28;20053;-71
2023/10/26 10:32:47;;;;;;;7.25;3.63;;;12.50;99.90;;;;;;4999722;28;19912;-64
2023/10/26 10:35:43;;;;;;;5.32;3.65;;;12.50;99.90;;;;;;4999368;28;20034;-64
2023/10/26 10:38:18;;;;;;;7.13;3.60;;;12.60;99.90;;;;;;4999336;28;20045;-64
2023/10/26 10:40:53;;;;;;;5.97;3.58;;;12.50;99.90;;;;;;5000399;28;20035;-64
2023/10/26 10:43:33;;;;;;;6.18;4.15;;;12.60;99.90;;;;;;4999325;28;20019;-64
2023/10/26 10:46:21;;;;;;;4.10;3.30;;;12.70;99.90;;;;;;4999235;28;20048;-64
2023/10/26 10:49:06;;;;;;;5.28;3.25;;;12.70;99.90;;;;;;4999912;28;20060;-64
2023/10/26 10:51:41;;;;;;;5.05;3.10;;;12.90;99.90;;;;;;4999356;28;20033;-64
2023/10/26 10:54:12;;;;;;;4.22;2.83;;;12.90;99.90;;;;;;4998967;28;20113;-64
2023/10/26 10:56:47;;;;;;;5.45;3.20;;;12.90;99.90;;;;;;4999594;28;20122;-64
2023/10/26 10:59:25;;;;;;;3.88;3.13;;;12.80;99.90;;;;;;4999312;28;20109;-64
2023/10/26 11:02:12;;;;;;;5.32;3.25;;;12.90;99.90;;;;;;4998887;28;20113;-64
2023/10/26 11:04:52;;;;;;;5.50;2.95;;;12.90;99.90;;;;;;4999142;28;20054;-64
2023/10/26 11:07:26;;;;;;;7.55;2.97;;;13.00;99.90;;;;;;4999639;28;20104;-64
2023/10/26 11:09:57;;;;;;;4.05;3.05;;;13.20;99.90;;;;;;4999542;28;20030;-63
2023/10/26 11:12:23;;;;;;;3.15;2.53;;;13.20;99.90;;;;;;4998758;28;20034;-64
2023/10/26 11:14:59;;;;;;;4.80;3.05;;;13.20;99.90;;;;;;4998912;28;20080;-63
2023/10/26 11:17:27;;;;;;;3.45;2.10;;;13.30;99.90;;;;;;4999330;28;20038;-64
2023/10/26 11:19:53;;;;;;;3.03;2.33;;;13.30;99.90;;;;;;4999218;28;20026;-63
2023/10/26 11:22:20;;;;;;;3.90;2.58;;;13.40;99.90;;;;;;4998639;28;20121;-63
2023/10/26 11:24:46;;;;;;;5.82;2.75;;;13.30;99.90;;;;;;4998867;28;20030;-64
2023/10/26 11:27:19;;;;;;;3.53;2.50;;;13.30;99.90;;;;;;4998859;28;20023;-64
2023/10/26 11:30:04;;;;;;;3.92;2.42;;;13.20;99.90;;;;;;4998732;28;20031;-64
2023/10/26 11:32:30;;;;;;;3.95;2.70;;;13.30;99.90;;;;;;4997846;28;20090;-64
2023/10/26 11:35:16;;;;;;;2.58;2.25;;;13.30;99.90;;;;;;4998952;28;20138;-64
2023/10/26 11:37:53;;;;;;;3.20;2.45;;;13.30;99.90;;;;;;4998167;28;20031;-64
2023/10/26 11:40:27;;;;;;;4.40;2.40;;;13.30;99.90;;;;;;4997965;28;20022;-64
2023/10/26 11:42:59;;;;;;;3.17;2.28;;;13.30;99.90;;;;;;4998137;28;20023;-64
2023/10/26 11:45:26;;;;;;;3.42;2.53;;;13.30;99.90;;;;;;4998381;28;20053;-64
2023/10/26 11:47:54;;;;;;;3.63;2.20;;;13.30;99.90;;;;;;4998297;28;20030;-64
2023/10/26 11:50:34;;;;;;;2.90;1.98;;;13.30;99.90;;;;;;4998211;28;20085;-64
2023/10/26 11:53:04;;;;;;;2.35;1.90;;;13.30;99.90;;;;;;4998876;28;20022;-64
2023/10/26 11:55:32;;;;;;;3.67;2.47;;;13.40;99.90;;;;;;4998107;28;20023;-64
2023/10/26 11:57:59;;;;;;;2.42;1.95;;;13.30;99.90;;;;;;4998204;28;20080;-64
2023/10/26 12:00:28;;;;;;;2.13;1.67;;;13.20;99.90;;;;;;4997741;28;20022;-64
2023/10/26 12:02:55;;;;;;;2.03;1.80;;;13.30;99.90;;;;;;4996659;28;20035;-64
2023/10/26 12:05:22;;;;;;;3.30;1.50;;;13.40;99.90;;;;;;4998292;28;20033;-64
2023/10/26 12:07:49;;;;;;;2.58;1.30;;;13.40;99.90;;;;;;4983618;28;20029;-64
2023/10/26 12:10:16;;;;;;;2.05;1.33;;;13.40;99.90;;;;;;4978527;28;20073;-64
2023/10/26 12:12:43;;;;;;;2.20;1.40;;;13.60;99.90;;;;;;4979030;28;20030;-63
2023/10/26 12:15:09;;;;;;;1.95;1.65;;;13.70;99.90;;;;;;4978076;28;20086;-64
2023/10/26 12:17:34;;;;;;;1.42;1.30;;;13.80;99.90;;;;;;4978021;28;20029;-64
2023/10/26 12:20:00;;;;;;;1.90;1.27;;;13.90;99.90;;;;;;4979004;28;20035;-64
2023/10/26 12:22:26;;;;;;;1.33;1.20;;;14.00;99.90;;;;;;4978641;28;20023;-64
2023/10/26 12:24:52;;;;;;;1.77;1.17;;;14.00;99.90;;;;;;4978247;28;20033;-64
2023/10/26 12:27:18;;;;;;;1.33;1.20;;;14.00;99.90;;;;;;4977813;28;20023;-64
2023/10/26 12:29:44;;;;;;;1.02;1.00;;;14.00;99.90;;;;;;4978800;28;20049;-64
2023/10/26 12:32:10;;;;;;;1.83;1.25;;;13.80;99.90;;;;;;4979064;28;20038;-64
2023/10/26 12:34:36;;;;;;;2.03;0.90;;;13.80;99.90;;;;;;4977728;28;20026;-63
2023/10/26 12:37:02;;;;;;;1.20;1.10;;;13.80;99.90;;;;;;4977638;28;20030;-64
2023/10/26 12:39:27;;;;;;;1.67;1.20;;;13.80;99.90;;;;;;4978732;28;20050;-63
2023/10/26 12:41:53;;;;;;;0.95;0.93;;;13.80;99.90;;;;;;4977730;28;20022;-64
2023/10/26 12:44:21;;;;;;;1.98;1.60;;;13.70;99.90;;;;;;4978554;28;20053;-64